createdAt,value
2022-11-15T00:02:01.876Z,6.15
2022-11-15T00:04:48.456Z,6.10
2022-11-15T00:07:54.680Z,6.15
2022-11-15T00:10:41.946Z,6.11
2022-11-15T00:13:29.438Z,6.19
2022-11-15T00:16:15.748Z,6.17
2022-11-15T00:19:01.929Z,6.15
2022-11-15T00:21:48.016Z,6.19
2022-11-15T00:24:35.744Z,6.17
2022-11-15T00:27:22.139Z,6.14
2022-11-15T00:30:08.968Z,6.12
2022-11-15T00:32:56.162Z,6.16
2022-11-15T00:35:42.192Z,6.17
2022-11-15T00:38:33.482Z,6.17
2022-11-15T00:41:21.099Z,6.15
2022-11-15T00:44:07.243Z,6.19
2022-11-15T00:46:53.415Z,6.23
2022-11-15T00:49:39.670Z,6.20
2022-11-15T00:52:25.719Z,6.23
2022-11-15T00:55:16.654Z,6.19
2022-11-15T00:58:04.219Z,6.20
2022-11-15T01:00:50.511Z,6.21
2022-11-15T01:03:36.748Z,6.26
2022-11-15T01:06:23.152Z,6.29
2022-11-15T01:09:09.337Z,6.35
2022-11-15T01:11:55.352Z,6.36
2022-11-15T01:14:42.982Z,6.37
2022-11-15T01:17:29.206Z,6.38
2022-11-15T01:20:16.167Z,6.39
2022-11-15T01:23:02.244Z,6.44
2022-11-15T01:25:48.598Z,6.50
2022-11-15T01:28:36.574Z,6.55
2022-11-15T01:31:24.585Z,6.62
2022-11-15T01:34:10.931Z,6.64
2022-11-15T01:36:57.079Z,6.67
2022-11-15T01:39:43.215Z,6.73
2022-11-15T01:42:29.324Z,6.75
2022-11-15T01:45:17.008Z,6.79
2022-11-15T01:48:04.988Z,6.83
2022-11-15T01:50:52.054Z,6.85
2022-11-15T01:53:42.625Z,6.91
2022-11-15T01:56:32.367Z,6.91
2022-11-15T01:59:19.265Z,6.96
2022-11-15T02:02:05.695Z,6.98
2022-11-15T02:04:53.098Z,7.06
2022-11-15T02:07:39.287Z,7.08
2022-11-15T02:10:26.378Z,7.12
2022-11-15T02:13:12.667Z,7.11
2022-11-15T02:16:08.092Z,7.14
2022-11-15T02:18:59.996Z,7.21
2022-11-15T02:21:56.251Z,7.28
2022-11-15T02:25:05.940Z,7.34
2022-11-15T02:28:27.576Z,7.39
2022-11-15T02:31:26.388Z,7.44
2022-11-15T02:34:24.422Z,7.50
2022-11-15T02:37:18.195Z,7.58
2022-11-15T02:40:13.548Z,7.68
2022-11-15T02:43:26.364Z,7.74
2022-11-15T02:46:20.627Z,7.81
2022-11-15T02:49:07.185Z,7.88
2022-11-15T02:51:55.263Z,7.93
2022-11-15T02:54:41.500Z,7.97
2022-11-15T02:57:41.463Z,8.03
2022-11-15T03:00:32.902Z,8.04
2022-11-15T03:03:38.266Z,8.06
2022-11-15T03:06:37.045Z,8.12
2022-11-15T03:09:34.271Z,8.18
2022-11-15T03:12:30.143Z,8.21
2022-11-15T03:15:23.415Z,8.26
2022-11-15T03:18:17.465Z,8.31
2022-11-15T03:21:09.285Z,8.33
2022-11-15T03:23:57.554Z,8.42
2022-11-15T03:26:47.610Z,8.50
2022-11-15T03:29:38.191Z,8.56
2022-11-15T03:32:28.436Z,8.60
2022-11-15T03:35:19.220Z,8.66
2022-11-15T03:38:11.404Z,8.69
2022-11-15T03:41:03.212Z,8.72
2022-11-15T03:43:55.613Z,8.72
2022-11-15T03:46:47.866Z,8.77
2022-11-15T03:49:36.871Z,8.81
2022-11-15T03:52:24.290Z,8.82
2022-11-15T03:55:15.848Z,8.89
2022-11-15T03:58:03.127Z,8.90
2022-11-15T04:00:49.299Z,8.93
2022-11-15T04:03:35.330Z,8.98
2022-11-15T04:06:21.487Z,9.03
2022-11-15T04:09:07.888Z,9.07
2022-11-15T04:11:55.349Z,9.13
2022-11-15T04:15:01.469Z,9.16
2022-11-15T04:17:49.887Z,9.16
2022-11-15T04:20:53.460Z,9.21
2022-11-15T04:23:57.345Z,9.27
2022-11-15T04:26:43.789Z,9.27
2022-11-15T04:29:37.018Z,9.32
2022-11-15T04:32:23.401Z,9.35
2022-11-15T04:35:10.121Z,9.39
2022-11-15T04:37:56.826Z,9.39
2022-11-15T04:40:43.031Z,9.43
2022-11-15T04:43:29.540Z,9.44
2022-11-15T04:46:17.274Z,9.44
2022-11-15T04:49:03.534Z,9.44
2022-11-15T04:51:50.571Z,9.51
2022-11-15T04:54:36.830Z,9.58
2022-11-15T04:57:23.018Z,9.57
2022-11-15T05:00:11.856Z,9.59
2022-11-15T05:03:17.195Z,9.56
2022-11-15T05:06:07.819Z,9.57
2022-11-15T05:08:53.996Z,9.55
2022-11-15T05:11:40.152Z,9.59
2022-11-15T05:14:26.260Z,9.60
2022-11-15T05:17:12.273Z,9.61
2022-11-15T05:19:59.910Z,9.66
2022-11-15T05:22:45.970Z,9.66
2022-11-15T05:25:32.300Z,9.65
2022-11-15T05:28:18.519Z,9.65
2022-11-15T05:31:06.479Z,9.69
2022-11-15T05:33:54.029Z,9.70
2022-11-15T05:36:45.635Z,9.76
2022-11-15T05:39:31.945Z,9.77
2022-11-15T05:42:18.759Z,9.78
2022-11-15T05:45:08.010Z,9.80
2022-11-15T05:47:55.741Z,9.83
2022-11-15T05:50:45.479Z,9.85
2022-11-15T05:53:33.821Z,9.81
2022-11-15T05:56:20.716Z,9.83
2022-11-15T05:59:07.816Z,9.84
2022-11-15T06:01:54.311Z,9.91
2022-11-15T06:04:40.815Z,9.96
2022-11-15T06:07:26.990Z,9.98
2022-11-15T06:10:14.955Z,9.98
2022-11-15T06:13:02.131Z,9.97
2022-11-15T06:15:48.291Z,10.00
2022-11-15T06:18:35.157Z,10.05
2022-11-15T06:21:21.428Z,10.08
2022-11-15T06:24:08.461Z,10.12
2022-11-15T06:26:56.269Z,10.10
2022-11-15T06:29:42.423Z,10.11
2022-11-15T06:32:28.726Z,10.14
2022-11-15T06:35:15.184Z,10.20
2022-11-15T06:38:05.698Z,10.20
2022-11-15T06:40:51.755Z,10.17
2022-11-15T06:43:39.575Z,10.16
2022-11-15T06:46:25.990Z,10.16
2022-11-15T06:49:12.052Z,10.15
2022-11-15T06:51:58.269Z,10.18
2022-11-15T06:54:44.449Z,10.15
2022-11-15T06:57:30.507Z,10.14
2022-11-15T07:00:20.484Z,10.09
2022-11-15T07:03:07.120Z,10.14
2022-11-15T07:05:55.428Z,10.19
2022-11-15T07:08:42.681Z,10.22
2022-11-15T07:11:29.045Z,10.20
2022-11-15T07:14:15.333Z,10.25
2022-11-15T07:17:05.781Z,10.29
2022-11-15T07:19:52.053Z,10.31
2022-11-15T07:22:38.360Z,10.37
2022-11-15T07:25:24.451Z,10.41
2022-11-15T07:28:10.803Z,10.43
2022-11-15T07:30:57.144Z,10.43
2022-11-15T07:33:44.660Z,10.46
2022-11-15T07:36:30.821Z,10.49
2022-11-15T07:39:17.052Z,10.52
2022-11-15T07:42:20.739Z,10.49
2022-11-15T07:45:08.111Z,10.49
2022-11-15T07:47:54.915Z,10.53
2022-11-15T07:50:44.577Z,10.53
2022-11-15T07:53:31.251Z,10.50
2022-11-15T07:56:17.806Z,10.48
2022-11-15T07:59:04.032Z,10.45
2022-11-15T08:01:50.205Z,10.41
2022-11-15T08:04:36.809Z,10.49
2022-11-15T08:07:24.454Z,10.63
2022-11-15T08:10:12.441Z,10.71
2022-11-15T08:13:00.741Z,10.72
2022-11-15T08:15:47.115Z,10.76
2022-11-15T08:18:33.348Z,10.78
2022-11-15T08:21:21.619Z,10.75
2022-11-15T08:24:11.900Z,10.74
2022-11-15T08:26:58.402Z,10.84
2022-11-15T08:29:44.903Z,10.80
2022-11-15T08:32:32.668Z,10.83
2022-11-15T08:35:22.580Z,10.87
2022-11-15T08:38:11.332Z,10.94
2022-11-15T08:41:05.753Z,10.88
2022-11-15T08:43:51.900Z,10.81
2022-11-15T08:46:38.109Z,10.74
2022-11-15T08:49:24.386Z,10.76
2022-11-15T08:52:10.569Z,10.79
2022-11-15T08:54:56.749Z,10.90
2022-11-15T08:57:44.515Z,11.02
2022-11-15T09:00:30.667Z,11.11
2022-11-15T09:03:17.177Z,11.17
2022-11-15T09:06:03.795Z,11.20
2022-11-15T09:08:50.321Z,11.20
2022-11-15T09:11:36.658Z,11.20
2022-11-15T09:14:24.279Z,11.46
2022-11-15T09:17:10.986Z,11.58
2022-11-15T09:19:57.064Z,11.74
2022-11-15T09:22:43.285Z,11.82
2022-11-15T09:25:30.174Z,11.83
2022-11-15T09:28:16.715Z,11.59
2022-11-15T09:31:06.790Z,11.46
2022-11-15T09:33:52.892Z,11.41
2022-11-15T09:36:39.069Z,11.56
2022-11-15T09:39:25.171Z,11.76
2022-11-15T09:42:26.484Z,11.79
2022-11-15T09:45:20.597Z,11.68
2022-11-15T09:48:43.615Z,11.61
2022-11-15T09:51:33.807Z,11.68
2022-11-15T09:57:16.304Z,11.95
2022-11-15T10:03:13.081Z,12.36
2022-11-15T10:05:44.717Z,12.46
2022-11-15T10:08:27.567Z,12.71
2022-11-15T10:11:22.809Z,12.77
2022-11-15T10:13:50.300Z,12.58
2022-11-15T10:16:35.037Z,12.57
2022-11-15T10:19:09.232Z,12.54
2022-11-15T10:21:46.596Z,12.41
2022-11-15T10:24:17.872Z,12.33
2022-11-15T10:26:48.891Z,12.33
2022-11-15T10:29:26.163Z,12.33
2022-11-15T10:31:54.645Z,12.40
2022-11-15T10:34:24.135Z,12.33
2022-11-15T10:36:58.470Z,12.30
2022-11-15T10:39:27.168Z,12.23
2022-11-15T10:41:55.719Z,12.32
2022-11-15T10:44:29.050Z,12.39
2022-11-15T10:47:08.965Z,12.52
2022-11-15T10:49:37.342Z,12.51
2022-11-15T10:52:17.025Z,12.45
2022-11-15T10:54:48.353Z,12.32
2022-11-15T10:57:18.744Z,12.23
2022-11-15T10:59:49.981Z,12.35
2022-11-15T11:02:35.197Z,12.62
2022-11-15T11:05:04.396Z,12.67
2022-11-15T11:07:35.469Z,12.89
2022-11-15T11:10:29.043Z,12.82
2022-11-15T11:12:56.528Z,13.00
2022-11-15T11:15:27.104Z,13.25
2022-11-15T11:18:04.956Z,13.55
2022-11-15T11:20:38.330Z,13.83
2022-11-15T11:23:26.566Z,13.58
2022-11-15T11:26:09.742Z,13.44
2022-11-15T11:28:47.876Z,13.31
2022-11-15T11:31:26.729Z,13.24
2022-11-15T11:34:04.234Z,13.17
2022-11-15T11:36:41.280Z,12.97
2022-11-15T11:39:23.341Z,12.87
2022-11-15T11:42:15.291Z,12.96
2022-11-15T11:44:55.409Z,13.00
2022-11-15T11:47:26.188Z,12.75
2022-11-15T11:49:58.253Z,12.65
2022-11-15T11:52:30.550Z,12.85
2022-11-15T11:55:08.198Z,12.98
2022-11-15T11:57:42.208Z,13.07
2022-11-15T12:00:20.350Z,13.31
2022-11-15T12:02:56.322Z,13.34
2022-11-15T12:05:30.976Z,13.56
2022-11-15T12:08:06.626Z,13.78
2022-11-15T12:10:37.235Z,13.72
2022-11-15T12:13:09.929Z,13.39
2022-11-15T12:15:44.047Z,13.38
2022-11-15T12:18:14.707Z,13.18
2022-11-15T12:20:52.772Z,13.23
2022-11-15T12:23:25.754Z,13.25
2022-11-15T12:26:00.013Z,13.14
2022-11-15T12:28:37.622Z,13.11
2022-11-15T12:31:11.940Z,13.18
2022-11-15T12:33:42.969Z,13.37
2022-11-15T12:36:13.119Z,13.31
2022-11-15T12:38:59.326Z,13.31
2022-11-15T12:41:30.848Z,13.28
2022-11-15T12:44:00.033Z,13.39
2022-11-15T12:47:04.448Z,13.58
2022-11-15T12:49:46.476Z,13.72
2022-11-15T12:52:14.600Z,14.04
2022-11-15T12:55:07.191Z,14.06
2022-11-15T12:57:45.677Z,13.96
2022-11-15T13:00:47.821Z,13.77
2022-11-15T13:03:27.485Z,13.89
2022-11-15T13:06:46.044Z,13.85
2022-11-15T13:09:32.123Z,13.73
2022-11-15T13:12:02.648Z,13.88
2022-11-15T13:14:50.583Z,14.05
2022-11-15T13:17:34.809Z,13.77
2022-11-15T13:20:18.443Z,13.87
2022-11-15T13:22:55.559Z,13.79
2022-11-15T13:25:35.636Z,13.86
2022-11-15T13:28:07.979Z,14.00
2022-11-15T13:30:38.372Z,13.65
2022-11-15T13:33:10.872Z,13.44
2022-11-15T13:35:42.141Z,13.48
2022-11-15T13:38:21.882Z,13.42
2022-11-15T13:40:49.616Z,13.48
2022-11-15T13:43:29.593Z,13.30
2022-11-15T13:46:10.143Z,13.02
2022-11-15T13:48:38.085Z,12.95
2022-11-15T13:51:09.211Z,12.94
2022-11-15T13:53:40.971Z,12.82
2022-11-15T13:56:09.464Z,12.71
2022-11-15T13:58:39.968Z,12.78
2022-11-15T14:01:15.683Z,12.55
2022-11-15T14:03:51.503Z,12.61
2022-11-15T14:06:21.900Z,12.65
2022-11-15T14:09:32.221Z,12.62
2022-11-15T14:12:00.079Z,12.66
2022-11-15T14:14:29.272Z,12.58
2022-11-15T14:17:00.196Z,12.49
2022-11-15T14:19:39.471Z,12.37
2022-11-15T14:22:22.565Z,12.24
2022-11-15T14:25:06.860Z,12.27
2022-11-15T14:27:35.612Z,12.33
2022-11-15T14:30:03.511Z,12.32
2022-11-15T14:32:44.872Z,12.23
2022-11-15T14:35:17.424Z,12.26
2022-11-15T14:37:45.936Z,12.21
2022-11-15T14:40:16.667Z,12.23
2022-11-15T14:42:45.921Z,12.29
2022-11-15T14:45:15.744Z,12.27
2022-11-15T14:47:45.349Z,12.15
2022-11-15T14:50:14.928Z,12.11
2022-11-15T14:52:43.681Z,12.04
2022-11-15T14:55:20.012Z,12.02
2022-11-15T14:57:47.889Z,12.02
2022-11-15T15:00:16.593Z,12.01
2022-11-15T15:02:46.904Z,11.99
2022-11-15T15:05:17.043Z,11.94
2022-11-15T15:07:45.002Z,12.01
2022-11-15T15:13:01.681Z,11.95
2022-11-15T15:15:34.770Z,11.92
2022-11-15T15:18:05.408Z,11.91
2022-11-15T15:20:33.643Z,11.89
2022-11-15T15:23:03.997Z,11.89
2022-11-15T15:25:34.003Z,11.90
2022-11-15T15:28:02.502Z,11.86
2022-11-15T15:30:31.736Z,11.84
2022-11-15T15:32:59.751Z,11.82
2022-11-15T15:35:33.889Z,11.77
2022-11-15T15:38:04.320Z,11.77
2022-11-15T15:40:34.032Z,11.71
2022-11-15T15:43:02.341Z,11.73
2022-11-15T15:45:30.614Z,11.69
2022-11-15T15:47:58.429Z,11.69
2022-11-15T15:50:28.038Z,11.70
2022-11-15T15:52:58.656Z,11.72
2022-11-15T15:55:26.667Z,11.74
2022-11-15T15:57:54.484Z,11.74
2022-11-15T16:00:24.416Z,11.69
2022-11-15T16:02:52.696Z,11.72
2022-11-15T16:05:20.565Z,11.76
2022-11-15T16:07:48.802Z,11.76
2022-11-15T16:10:22.539Z,11.71
2022-11-15T16:12:50.573Z,11.73
2022-11-15T16:15:19.328Z,11.69
2022-11-15T16:17:51.802Z,11.68
2022-11-15T16:20:35.963Z,11.64
2022-11-15T16:23:08.962Z,11.65
2022-11-15T16:25:43.037Z,11.65
2022-11-15T16:28:22.413Z,11.70
2022-11-15T16:30:56.595Z,11.74
2022-11-15T16:33:25.185Z,11.76
2022-11-15T16:35:53.164Z,11.79
2022-11-15T16:38:21.328Z,11.81
2022-11-15T16:40:50.496Z,11.80
2022-11-15T16:43:18.333Z,11.79
2022-11-15T16:45:46.252Z,11.82
2022-11-15T16:48:25.161Z,11.84
2022-11-15T16:50:56.038Z,11.81
2022-11-15T16:53:24.020Z,11.78
2022-11-15T16:55:53.104Z,11.73
2022-11-15T16:58:20.865Z,11.75
2022-11-15T17:00:52.521Z,11.68
2022-11-15T17:03:20.652Z,11.65
2022-11-15T17:05:48.421Z,11.61
2022-11-15T17:08:16.484Z,11.61
2022-11-15T17:10:44.210Z,11.59
2022-11-15T17:13:14.711Z,11.55
2022-11-15T17:15:42.775Z,11.55
2022-11-15T17:18:12.462Z,11.60
2022-11-15T17:20:42.006Z,11.60
2022-11-15T17:23:14.628Z,11.63
2022-11-15T17:25:42.593Z,11.56
2022-11-15T17:28:11.029Z,11.44
2022-11-15T17:30:42.778Z,11.34
2022-11-15T17:33:10.509Z,11.19
2022-11-15T17:35:38.236Z,11.08
2022-11-15T17:38:06.025Z,11.06
2022-11-15T17:40:33.845Z,11.01
2022-11-15T17:43:02.533Z,10.94
2022-11-15T17:45:30.274Z,10.94
2022-11-15T17:47:59.392Z,10.94
2022-11-15T17:50:27.110Z,10.96
2022-11-15T17:52:54.996Z,10.89
2022-11-15T17:55:22.763Z,10.86
2022-11-15T17:57:50.508Z,10.76
2022-11-15T18:00:20.870Z,10.72
2022-11-15T18:02:48.572Z,10.72
2022-11-15T18:05:17.832Z,10.66
2022-11-15T18:07:45.538Z,10.66
2022-11-15T18:10:13.308Z,10.65
2022-11-15T18:12:41.061Z,10.66
2022-11-15T18:15:09.821Z,10.66
2022-11-15T18:17:37.592Z,10.63
2022-11-15T18:20:06.556Z,10.58
2022-11-15T18:22:35.658Z,10.54
2022-11-15T18:25:03.514Z,10.54
2022-11-15T18:27:31.336Z,10.53
2022-11-15T18:29:59.110Z,10.56
2022-11-15T18:32:27.236Z,10.57
2022-11-15T18:34:55.038Z,10.60
2022-11-15T18:37:22.790Z,10.62
2022-11-15T18:39:54.031Z,10.62
2022-11-15T18:42:21.877Z,10.55
2022-11-15T18:44:49.610Z,10.47
2022-11-15T18:47:17.348Z,10.46
2022-11-15T18:49:45.339Z,10.44
2022-11-15T18:52:13.105Z,10.43
2022-11-15T18:54:40.899Z,10.42
2022-11-15T18:57:09.996Z,10.43
2022-11-15T18:59:38.420Z,10.46
2022-11-15T19:02:06.198Z,10.52
2022-11-15T19:04:33.945Z,10.54
2022-11-15T19:07:01.803Z,10.55
2022-11-15T19:09:32.627Z,10.53
2022-11-15T19:12:00.524Z,10.53
2022-11-15T19:14:29.680Z,10.55
2022-11-15T19:16:57.464Z,10.53
2022-11-15T19:19:28.193Z,10.54
2022-11-15T19:21:57.440Z,10.56
2022-11-15T19:24:26.339Z,10.58
2022-11-15T19:26:54.835Z,10.59
2022-11-15T19:29:22.810Z,10.61
2022-11-15T19:31:51.945Z,10.63
2022-11-15T19:34:19.670Z,10.63
2022-11-15T19:36:47.397Z,10.65
2022-11-15T19:39:18.110Z,10.65
2022-11-15T19:41:46.506Z,10.68
2022-11-15T19:44:14.959Z,10.64
2022-11-15T19:46:44.265Z,10.60
2022-11-15T19:49:13.537Z,10.63
2022-11-15T19:51:44.954Z,10.65
2022-11-15T19:54:13.553Z,10.68
2022-11-15T19:56:41.404Z,10.70
2022-11-15T19:59:11.518Z,10.68
2022-11-15T20:01:39.753Z,10.70
2022-11-15T20:04:10.020Z,10.70
2022-11-15T20:06:41.486Z,10.68
2022-11-15T20:09:09.738Z,10.67
2022-11-15T20:11:39.324Z,10.65
2022-11-15T20:14:09.461Z,10.65
2022-11-15T20:16:37.423Z,10.63
2022-11-15T20:19:05.429Z,10.64
2022-11-15T20:21:33.195Z,10.64
2022-11-15T20:24:02.631Z,10.63
2022-11-15T20:26:32.121Z,10.64
2022-11-15T20:29:03.020Z,10.62
2022-11-15T20:31:31.793Z,10.64
2022-11-15T20:33:59.822Z,10.65
2022-11-15T20:36:28.137Z,10.65
2022-11-15T20:38:58.085Z,10.63
2022-11-15T20:41:27.923Z,10.59
2022-11-15T20:43:55.880Z,10.57
2022-11-15T20:46:23.632Z,10.58
2022-11-15T20:48:51.378Z,10.59
2022-11-15T20:51:19.911Z,10.64
2022-11-15T20:53:48.787Z,10.66
2022-11-15T20:56:19.014Z,10.68
2022-11-15T20:58:50.300Z,10.69
2022-11-15T21:01:23.241Z,10.72
2022-11-15T21:03:51.976Z,10.73
2022-11-15T21:06:20.938Z,10.70
2022-11-15T21:09:06.794Z,10.69
2022-11-15T21:11:52.243Z,10.73
2022-11-15T21:14:21.847Z,10.72
2022-11-15T21:16:49.681Z,10.73
2022-11-15T21:19:17.562Z,10.73
2022-11-15T21:21:45.356Z,10.72
2022-11-15T21:24:13.093Z,10.74
2022-11-15T21:26:40.900Z,10.80
2022-11-15T21:29:08.656Z,10.81
2022-11-15T21:31:37.751Z,10.83
2022-11-15T21:34:07.283Z,10.85
2022-11-15T21:36:35.074Z,10.87
2022-11-15T21:39:03.016Z,10.85
2022-11-15T21:41:31.196Z,10.85
2022-11-15T21:43:59.612Z,10.86
2022-11-15T21:46:29.123Z,10.88
2022-11-15T21:48:59.113Z,10.87
2022-11-15T21:51:27.275Z,10.87
2022-11-15T21:53:56.492Z,10.90
2022-11-15T21:56:25.533Z,10.92
2022-11-15T21:58:53.839Z,10.94
2022-11-15T22:01:39.783Z,10.96
2022-11-15T22:04:09.195Z,10.99
2022-11-15T22:06:37.255Z,10.94
2022-11-15T22:09:06.973Z,10.94
2022-11-15T22:11:34.807Z,10.94
2022-11-15T22:14:02.808Z,10.98
2022-11-15T22:16:30.543Z,10.95
2022-11-15T22:18:58.668Z,10.95
2022-11-15T22:21:27.864Z,10.93
2022-11-15T22:23:55.587Z,10.92
2022-11-15T22:26:24.268Z,10.88
2022-11-15T22:28:52.434Z,10.84
2022-11-15T22:31:20.669Z,10.82
2022-11-15T22:33:48.451Z,10.82
2022-11-15T22:36:16.253Z,10.80
2022-11-15T22:38:45.390Z,10.81
2022-11-15T22:41:13.315Z,10.82
2022-11-15T22:43:41.068Z,10.84
2022-11-15T22:46:09.132Z,10.85
2022-11-15T22:48:38.951Z,10.87
2022-11-15T22:51:08.739Z,10.86
2022-11-15T22:53:36.519Z,10.85
2022-11-15T22:56:07.788Z,10.82
2022-11-15T22:58:36.421Z,10.81
2022-11-15T23:01:05.985Z,10.83
2022-11-15T23:03:34.777Z,10.84
2022-11-15T23:06:04.334Z,10.86
2022-11-15T23:08:32.135Z,10.90
2022-11-15T23:11:22.684Z,10.92
2022-11-15T23:13:53.115Z,10.95
2022-11-15T23:16:34.104Z,10.96
2022-11-15T23:19:04.374Z,10.99
2022-11-15T23:21:48.342Z,10.99
2022-11-15T23:24:17.576Z,10.99
2022-11-15T23:26:46.492Z,10.99
2022-11-15T23:29:17.804Z,10.96
2022-11-15T23:32:03.675Z,10.98
2022-11-15T23:34:32.217Z,10.94
2022-11-15T23:37:00.489Z,10.90
2022-11-15T23:39:28.764Z,10.90
2022-11-15T23:41:57.081Z,10.90
2022-11-15T23:44:26.384Z,10.87
2022-11-15T23:46:54.532Z,10.90
2022-11-15T23:49:22.447Z,10.91
2022-11-15T23:51:50.303Z,10.93
2022-11-15T23:54:18.043Z,10.93
2022-11-15T23:56:45.923Z,10.93
2022-11-15T23:59:13.669Z,10.95
